This is the latest recevied weather packets stored in our database for station/object WA1TYB-13. If no packets are shown the sender has not sent any weather packets the latest 10 day(s).
| Time | Temp. | Humidity | Pressure | Rain* | Wind** | Luminosity | Snow |
|---|---|---|---|---|---|---|---|
| 1777648960 | 7.22° C | 60% | 1023.9 hPa | 0 mm | - | 373 W/m² | - |
| 1777648658 | 7.22° C | 61% | 1023.9 hPa | 0 mm | - | 361 W/m² | - |
| 1777648354 | 6.67° C | 63% | 1023.9 hPa | 0 mm | - | 344 W/m² | - |
| 1777648050 | 6.67° C | 62% | 1023.7 hPa | 0 mm | - | 310 W/m² | - |
| 1777647746 | 6.67° C | 62% | 1023.5 hPa | 0 mm | - | 280 W/m² | - |
| 1777647443 | 6.11° C | 66% | 1023.6 hPa | 0 mm | - | 274 W/m² | - |
| 1777647141 | 6.11° C | 65% | 1023.9 hPa | 0 mm | - | 246 W/m² | - |
| 1777646837 | 5.56° C | 66% | 1023.6 hPa | 0 mm | - | 219 W/m² | - |
| 1777646533 | 5° C | 65% | 1023.9 hPa | 0 mm | - | 209 W/m² | - |
| 1777646228 | 5° C | 65% | 1023.7 hPa | 0 mm | - | 205 W/m² | - |
| 1777645927 | 4.44° C | 67% | 1023.7 hPa | 0 mm | - | 184 W/m² | - |
| 1777645623 | 4.44° C | 67% | 1024 hPa | 0 mm | - | 152 W/m² | - |
| 1777645319 | 4.44° C | 66% | 1023.6 hPa | 0 mm | - | 130 W/m² | - |
| 1777645014 | 3.89° C | 65% | 1023.5 hPa | 0 mm | - | 113 W/m² | - |
| 1777644712 | 3.89° C | 65% | 1023.6 hPa | 0 mm | - | 123 W/m² | - |
| 1777644409 | 3.89° C | 66% | 1023.5 hPa | 0 mm | - | 93 W/m² | - |
| 1777644105 | 3.33° C | 67% | 1023.5 hPa | 0 mm | - | 95 W/m² | - |
| 1777643802 | 3.33° C | 68% | 1023.6 hPa | 0 mm | - | 44 W/m² | - |
| 1777643499 | 2.78° C | 68% | 1023.7 hPa | 0 mm | - | 83 W/m² | - |
| 1777643196 | 2.78° C | 67% | 1023.7 hPa | 0 mm | - | 67 W/m² | - |
| 1777642892 | 2.78° C | 67% | 1023.6 hPa | 0 mm | - | 41 W/m² | - |
| 1777642590 | 3.33° C | 65% | 1023.6 hPa | 0 mm | - | 56 W/m² | - |
| 1777642286 | 2.22° C | 69% | 1023.5 hPa | 0 mm | - | 35 W/m² | - |
| 1777641983 | 2.22° C | 70% | 1023.6 hPa | 0 mm | - | 34 W/m² | - |
| 1777641679 | 1.67° C | 70% | 1023.6 hPa | 0 mm | - | 34 W/m² | - |
* Rain latest hour (hover to see other rain measurements)
** Current wind speed in m/s (hover to see current wind gust speed)